Time;durP1;ratioP1;P1;durP2;ratioP2;P2;SDS_P1;SDS_P2;PMS_P1;PMS_P2;Temp;Humidity;BMP_temperature;BMP_pressure;BME280_temperature;BME280_humidity;BME280_pressure;Samples;Min_cycle;Max_cycle;Signal;HPM_P1;HPM_P2
2023/10/22 00:00:52;;;;;;;7.25;1.33;;;18.20;99.90;;;;;;5092059;28;20039;-72
2023/10/22 00:03:18;;;;;;;3.80;1.20;;;18.00;99.90;;;;;;5091718;28;20499;-72
2023/10/22 00:05:43;;;;;;;6.60;1.30;;;18.30;99.90;;;;;;5091835;28;20063;-72
2023/10/22 00:08:09;;;;;;;6.03;1.65;;;;;;;;;;5092076;28;20039;-72
2023/10/22 00:10:35;;;;;;;4.50;0.80;;;;;;;;;;5091506;28;20089;-72
2023/10/22 00:13:01;;;;;;;4.30;0.85;;;;;;;;;;5091123;28;20466;-72
2023/10/22 00:15:27;;;;;;;3.25;1.05;;;18.30;99.90;;;;;;5091539;28;20036;-72
2023/10/22 00:17:53;;;;;;;5.50;1.10;;;18.40;99.90;;;;;;5091639;28;20040;-72
2023/10/22 00:20:19;;;;;;;4.32;1.00;;;18.40;99.90;;;;;;5091587;28;20067;-72
2023/10/22 00:22:45;;;;;;;5.60;0.93;;;18.20;99.90;;;;;;5074935;28;20441;-72
2023/10/22 00:25:11;;;;;;;4.80;1.42;;;18.10;99.90;;;;;;5091544;28;20044;-72
2023/10/22 00:27:37;;;;;;;7.30;2.13;;;18.00;99.90;;;;;;5092885;28;20086;-72
2023/10/22 00:30:03;;;;;;;2.55;0.98;;;18.00;99.90;;;;;;5074643;28;20442;-71
2023/10/22 00:32:29;;;;;;;3.90;0.85;;;18.10;99.90;;;;;;5091314;28;20107;-72
2023/10/22 00:34:55;;;;;;;4.15;0.95;;;18.00;99.90;;;;;;5092594;28;20127;-72
2023/10/22 00:37:20;;;;;;;5.00;0.93;;;18.20;99.90;;;;;;5091669;28;20039;-72
2023/10/22 00:39:46;;;;;;;4.97;0.80;;;;;;;;;;5074475;28;20036;-72
2023/10/22 00:42:13;;;;;;;3.45;0.93;;;;;;;;;;5090882;28;20036;-72
2023/10/22 00:44:39;;;;;;;5.00;0.95;;;;;;;;;;5091191;28;20047;-72
2023/10/22 00:47:06;;;;;;;6.43;0.90;;;18.20;99.90;;;;;;5091030;28;20101;-72
2023/10/22 00:49:33;;;;;;;5.35;1.10;;;18.00;99.90;;;;;;5091160;28;20047;-72
2023/10/22 00:51:58;;;;;;;6.47;0.95;;;18.30;99.90;;;;;;5090955;28;20141;-72
2023/10/22 00:54:27;;;;;;;2.15;1.00;;;18.00;99.90;;;;;;5090648;28;20052;-72
2023/10/22 00:56:54;;;;;;;3.17;1.10;;;;;;;;;;5091112;28;20039;-72
2023/10/22 00:59:20;;;;;;;4.47;0.80;;;18.20;99.90;;;;;;5073968;28;20032;-73
2023/10/22 01:01:46;;;;;;;3.25;1.10;;;18.30;99.90;;;;;;5074152;28;20430;-72
2023/10/22 01:04:12;;;;;;;2.22;0.90;;;18.10;99.90;;;;;;5073798;28;20126;-72
2023/10/22 01:06:38;;;;;;;6.13;1.40;;;18.30;99.90;;;;;;5090850;28;20478;-72
2023/10/22 01:09:05;;;;;;;7.97;1.30;;;18.40;99.90;;;;;;5090903;28;20426;-72
2023/10/22 01:11:32;;;;;;;5.28;1.13;;;18.20;99.90;;;;;;5091137;28;20491;-73
2023/10/22 01:13:57;;;;;;;2.53;0.88;;;17.60;99.90;;;;;;5073511;28;20040;-73
2023/10/22 01:16:23;;;;;;;3.20;1.02;;;17.50;99.90;;;;;;5090647;28;20088;-73
2023/10/22 01:18:49;;;;;;;5.68;1.15;;;18.00;99.90;;;;;;5090963;28;20032;-73
2023/10/22 01:21:14;;;;;;;5.95;1.50;;;;;;;;;;5091881;28;20032;-72
2023/10/22 01:23:40;;;;;;;6.97;1.50;;;;;;;;;;5090304;28;20044;-72
2023/10/22 01:26:07;;;;;;;5.30;1.88;;;17.20;99.90;;;;;;5089573;28;20036;-72
2023/10/22 01:28:34;;;;;;;5.45;1.33;;;18.00;99.90;;;;;;5073766;28;20043;-72
2023/10/22 01:31:00;;;;;;;4.18;1.80;;;17.30;99.90;;;;;;5090376;28;20035;-72
2023/10/22 01:33:26;;;;;;;5.30;1.30;;;17.10;99.90;;;;;;5090103;28;20411;-73
2023/10/22 01:35:51;;;;;;;4.88;1.20;;;16.90;99.90;;;;;;5073570;28;20032;-72
2023/10/22 01:38:17;;;;;;;4.80;1.35;;;;;;;;;;5090343;28;20109;-72
2023/10/22 01:40:43;;;;;;;5.72;1.00;;;;;;;;;;5090200;28;20043;-72
2023/10/22 01:43:09;;;;;;;6.65;1.45;;;;;;;;;;5090115;28;20079;-72
2023/10/22 01:45:36;;;;;;;4.85;1.30;;;;;;;;;;5091707;28;20090;-72
2023/10/22 01:48:02;;;;;;;2.85;1.27;;;;;;;;;;5090294;28;20040;-72
2023/10/22 01:50:28;;;;;;;7.45;1.55;;;;;;;;;;5090103;28;20449;-72
2023/10/22 01:52:54;;;;;;;4.50;1.40;;;;;;;;;;5089952;28;20047;-72
2023/10/22 01:55:20;;;;;;;4.15;1.23;;;;;;;;;;5073233;28;20131;-72
2023/10/22 01:57:46;;;;;;;6.63;1.38;;;;;;;;;;5091647;28;20075;-73
2023/10/22 02:00:12;;;;;;;5.20;1.40;;;;;;;;;;5090065;28;20036;-73
2023/10/22 02:02:42;;;;;;;5.43;1.40;;;17.00;99.90;;;;;;5089875;28;20500;-72
2023/10/22 02:05:08;;;;;;;3.70;1.02;;;17.90;99.90;;;;;;5090147;28;20040;-72
2023/10/22 02:07:35;;;;;;;6.63;1.63;;;17.10;99.90;;;;;;5090075;28;20162;-72
2023/10/22 02:10:01;;;;;;;3.70;1.60;;;17.90;99.90;;;;;;5089970;28;20048;-72
2023/10/22 02:12:28;;;;;;;5.78;1.48;;;16.70;99.90;;;;;;5089780;28;20403;-72
2023/10/22 02:14:54;;;;;;;2.17;1.15;;;17.30;99.90;;;;;;5073296;28;20052;-72
2023/10/22 02:17:20;;;;;;;6.47;1.60;;;;;;;;;;5090081;28;20032;-72
2023/10/22 02:19:45;;;;;;;3.80;1.75;;;16.90;99.90;;;;;;5089958;28;20040;-72
2023/10/22 02:22:12;;;;;;;4.00;1.40;;;16.80;99.90;;;;;;5089881;28;20514;-73
2023/10/22 02:24:39;;;;;;;3.40;1.40;;;17.70;99.90;;;;;;5089984;28;20040;-73
2023/10/22 02:27:05;;;;;;;4.15;1.60;;;;;;;;;;5073147;28;20085;-73
2023/10/22 02:29:31;;;;;;;5.43;1.30;;;;;;;;;;5089884;28;20108;-73
2023/10/22 02:31:57;;;;;;;4.50;1.52;;;17.10;99.90;;;;;;5091602;28;20040;-73
2023/10/22 02:34:22;;;;;;;6.32;1.45;;;17.30;99.90;;;;;;5089710;28;20040;-73
2023/10/22 02:36:48;;;;;;;4.90;1.40;;;17.10;99.90;;;;;;5091168;28;20093;-73
2023/10/22 02:39:14;;;;;;;3.92;1.35;;;;;;;;;;5093427;28;20081;-73
2023/10/22 02:41:40;;;;;;;9.00;1.70;;;;;;;;;;5093490;28;20411;-72
2023/10/22 02:44:06;;;;;;;3.33;1.55;;;;;;;;;;5093443;28;20123;-72
2023/10/22 02:46:32;;;;;;;5.13;1.33;;;17.20;99.90;;;;;;5093465;28;20101;-72
2023/10/22 02:49:01;;;;;;;3.55;1.70;;;17.40;99.90;;;;;;5093595;28;20427;-72
2023/10/22 02:51:26;;;;;;;1.50;1.05;;;16.90;99.90;;;;;;5093453;28;20088;-72
2023/10/22 02:53:52;;;;;;;4.10;1.38;;;;;;;;;;5093003;28;20087;-72
2023/10/22 02:56:18;;;;;;;5.25;1.58;;;;;;;;;;5093470;28;20483;-72
2023/10/22 02:58:44;;;;;;;2.22;1.30;;;;;;;;;;5093246;28;20306;-72
2023/10/22 03:01:11;;;;;;;2.88;1.30;;;17.00;99.90;;;;;;5093321;28;20517;-72
2023/10/22 03:03:40;;;;;;;2.75;1.40;;;17.50;99.90;;;;;;5093094;28;20032;-72
2023/10/22 03:06:07;;;;;;;3.00;1.20;;;17.20;99.90;;;;;;5093227;28;20044;-72
2023/10/22 03:08:38;;;;;;;3.80;2.05;;;16.90;99.90;;;;;;5076244;28;20044;-72
2023/10/22 03:11:07;;;;;;;1.42;1.10;;;17.20;99.90;;;;;;5092762;28;20169;-72
2023/10/22 03:13:33;;;;;;;3.55;1.23;;;17.90;99.90;;;;;;5092621;28;20036;-72
2023/10/22 03:16:11;;;;;;;1.63;1.30;;;17.90;99.90;;;;;;5093067;28;20065;-73
2023/10/22 03:18:38;;;;;;;3.72;1.60;;;17.00;99.90;;;;;;5092872;28;20036;-72
2023/10/22 03:21:11;;;;;;;2.55;1.35;;;17.70;99.90;;;;;;5075608;28;20043;-72
2023/10/22 03:23:41;;;;;;;4.22;2.30;;;18.10;99.90;;;;;;5092474;28;20040;-72
2023/10/22 03:26:08;;;;;;;3.15;1.70;;;17.90;99.90;;;;;;5075730;28;20483;-72
2023/10/22 03:28:35;;;;;;;4.93;1.95;;;17.70;99.90;;;;;;5092934;28;20040;-72
2023/10/22 03:31:04;;;;;;;3.22;1.60;;;17.30;99.90;;;;;;5092669;28;20123;-72
2023/10/22 03:33:31;;;;;;;6.32;2.25;;;17.10;99.90;;;;;;5092240;28;20047;-72
2023/10/22 03:35:58;;;;;;;4.82;1.50;;;18.20;99.90;;;;;;5092535;28;20066;-72
2023/10/22 03:38:24;;;;;;;4.80;2.28;;;17.60;99.90;;;;;;5092691;28;20036;-72
2023/10/22 03:40:59;;;;;;;3.67;1.65;;;17.30;99.90;;;;;;5075635;28;20083;-72
2023/10/22 03:43:29;;;;;;;1.90;1.40;;;17.20;99.90;;;;;;5092205;28;20085;-72
2023/10/22 03:45:58;;;;;;;5.68;1.60;;;17.20;99.90;;;;;;5092212;28;20088;-72
2023/10/22 03:48:25;;;;;;;4.20;1.55;;;18.00;99.90;;;;;;5091735;28;20028;-72
2023/10/22 03:50:51;;;;;;;5.20;1.70;;;;;;;;;;5092296;28;20062;-72
2023/10/22 03:53:17;;;;;;;2.50;1.25;;;;;;;;;;5091864;28;20084;-72
2023/10/22 03:55:43;;;;;;;1.95;1.70;;;17.00;99.90;;;;;;5091970;28;20247;-72
2023/10/22 03:58:08;;;;;;;3.42;1.45;;;17.30;99.90;;;;;;5075426;28;20114;-72
2023/10/22 04:00:34;;;;;;;4.15;1.92;;;17.20;99.90;;;;;;5091843;28;20032;-72
2023/10/22 04:03:01;;;;;;;4.10;1.70;;;17.80;99.90;;;;;;5092015;28;20168;-72
2023/10/22 04:05:27;;;;;;;2.85;1.58;;;;;;;;;;5091953;28;20044;-72
2023/10/22 04:07:52;;;;;;;2.17;1.33;;;18.30;99.90;;;;;;5091807;28;20043;-72
2023/10/22 04:10:19;;;;;;;3.33;1.48;;;;;;;;;;5091855;28;20067;-72
2023/10/22 04:12:44;;;;;;;3.67;2.10;;;18.10;99.90;;;;;;5091711;28;20105;-72
2023/10/22 04:15:10;;;;;;;2.58;1.77;;;;;;;;;;5091678;28;20044;-72
2023/10/22 04:17:36;;;;;;;2.72;1.52;;;;;;;;;;5091653;28;20043;-72
2023/10/22 04:20:03;;;;;;;3.17;1.90;;;17.80;99.90;;;;;;5091714;28;20036;-72
2023/10/22 04:22:29;;;;;;;2.63;1.58;;;;;;;;;;5090941;28;20071;-72
2023/10/22 04:24:55;;;;;;;3.75;2.33;;;;;;;;;;5091751;28;20110;-72
2023/10/22 04:27:21;;;;;;;2.13;1.70;;;;;;;;;;5091382;28;20059;-72
2023/10/22 04:29:47;;;;;;;4.15;2.60;;;;;;;;;;5091644;28;20388;-72
2023/10/22 04:32:13;;;;;;;3.03;2.28;;;;;;;;;;5091099;28;20052;-72
2023/10/22 04:34:40;;;;;;;5.43;3.22;;;;;;;;;;5091200;28;20526;-72
2023/10/22 04:37:06;;;;;;;4.90;3.58;;;17.80;99.90;;;;;;5091182;28;20118;-72
2023/10/22 04:39:32;;;;;;;5.68;3.45;;;18.50;99.90;;;;;;5091517;28;20040;-72
2023/10/22 04:41:58;;;;;;;6.63;3.83;;;17.50;99.90;;;;;;5091273;28;20032;-72
2023/10/22 04:44:23;;;;;;;5.72;3.22;;;17.40;99.90;;;;;;5091024;28;20499;-72
2023/10/22 04:46:52;;;;;;;4.03;3.63;;;17.60;99.90;;;;;;5091174;28;20039;-72
2023/10/22 04:49:18;;;;;;;6.07;4.78;;;17.80;99.90;;;;;;5074456;28;20185;-72
2023/10/22 04:51:44;;;;;;;8.63;4.90;;;;;;;;;;5073994;28;20530;-72
2023/10/22 04:54:10;;;;;;;7.22;5.07;;;17.50;99.90;;;;;;5090913;28;20123;-72
2023/10/22 04:56:36;;;;;;;7.65;5.72;;;;;;;;;;5074089;28;20162;-72
2023/10/22 04:59:02;;;;;;;7.82;6.30;;;;;;;;;;5074176;28;20123;-73
2023/10/22 05:01:28;;;;;;;10.95;5.90;;;18.00;99.90;;;;;;5073891;28;20050;-72
2023/10/22 05:03:54;;;;;;;12.20;7.18;;;;;;;;;;5090868;28;20032;-72
2023/10/22 05:06:20;;;;;;;12.48;7.13;;;;;;;;;;5090611;28;20036;-72
2023/10/22 05:08:46;;;;;;;10.38;7.97;;;;;;;;;;5090742;28;20043;-72
2023/10/22 05:11:16;;;;;;;10.27;7.65;;;17.40;99.90;;;;;;5090945;28;20040;-72
2023/10/22 05:13:43;;;;;;;10.07;7.72;;;17.80;99.90;;;;;;5090398;28;20047;-72
2023/10/22 05:16:10;;;;;;;10.95;6.95;;;;;;;;;;5090695;28;20040;-72
2023/10/22 05:18:36;;;;;;;10.98;7.88;;;18.80;99.90;;;;;;5090599;28;20047;-72
2023/10/22 05:21:06;;;;;;;9.98;7.85;;;17.30;99.90;;;;;;5090493;28;20123;-72
2023/10/22 05:23:33;;;;;;;10.65;7.05;;;18.20;99.90;;;;;;5090688;28;20036;-72
2023/10/22 05:26:11;;;;;;;6.70;6.00;;;18.20;99.90;;;;;;5090675;28;20040;-72
2023/10/22 05:28:37;;;;;;;7.70;5.82;;;17.60;99.90;;;;;;5090722;28;20507;-72
2023/10/22 05:31:10;;;;;;;7.40;3.67;;;18.40;99.90;;;;;;5073718;28;20054;-72
2023/10/22 05:33:36;;;;;;;6.25;3.13;;;;;;;;;;5073916;28;20728;-72
2023/10/22 05:36:03;;;;;;;4.35;2.88;;;;;;;;;;5090506;28;20081;-72
2023/10/22 05:38:28;;;;;;;4.35;1.30;;;17.90;99.90;;;;;;5090545;28;20071;-72
2023/10/22 05:40:54;;;;;;;4.40;1.40;;;18.30;99.90;;;;;;5090292;28;20078;-72
2023/10/22 05:43:20;;;;;;;3.17;1.48;;;;;;;;;;5090316;28;20067;-72
2023/10/22 05:45:54;;;;;;;6.72;1.40;;;18.30;99.90;;;;;;5090285;28;20040;-72
2023/10/22 05:48:20;;;;;;;2.55;1.30;;;;;;;;;;5090462;28;20059;-72
2023/10/22 05:50:46;;;;;;;3.28;1.25;;;;;;;;;;5090295;28;20404;-72
2023/10/22 05:53:12;;;;;;;6.00;2.30;;;;;;;;;;5090329;28;20036;-72
2023/10/22 05:55:38;;;;;;;6.75;2.25;;;18.00;99.90;;;;;;5090330;28;20511;-72
2023/10/22 05:58:05;;;;;;;5.45;2.33;;;17.30;99.90;;;;;;5090405;28;20032;-72
2023/10/22 06:00:31;;;;;;;5.05;1.98;;;;;;;;;;5090035;28;20048;-72
2023/10/22 06:02:57;;;;;;;8.05;2.20;;;;;;;;;;5090097;28;20036;-72
2023/10/22 06:05:23;;;;;;;5.90;2.42;;;18.00;99.90;;;;;;5090227;28;20125;-72
2023/10/22 06:07:51;;;;;;;8.18;2.45;;;;;;;;;;5090431;28;20048;-72
2023/10/22 06:10:16;;;;;;;8.63;1.95;;;18.00;99.90;;;;;;5090096;28;20048;-72
2023/10/22 06:12:42;;;;;;;10.05;1.67;;;;;;;;;;5092874;28;20085;-72
2023/10/22 06:15:08;;;;;;;4.78;1.63;;;17.10;99.90;;;;;;5094134;28;20032;-72
2023/10/22 06:17:34;;;;;;;6.53;1.70;;;17.40;99.90;;;;;;5077293;28;20039;-72
2023/10/22 06:20:00;;;;;;;5.93;1.65;;;;;;;;;;5093771;28;20552;-72
2023/10/22 06:22:26;;;;;;;8.93;1.58;;;;;;;;;;5093576;28;20549;-72
2023/10/22 06:24:52;;;;;;;7.55;1.50;;;;;;;;;;5076925;28;20578;-72
2023/10/22 06:27:18;;;;;;;9.95;1.70;;;;;;;;;;5093790;28;20043;-72
2023/10/22 06:29:48;;;;;;;3.70;1.48;;;17.40;99.90;;;;;;5093664;28;20048;-72
2023/10/22 06:32:13;;;;;;;9.60;1.90;;;16.80;99.90;;;;;;5093446;28;20036;-72
2023/10/22 06:34:39;;;;;;;7.55;1.77;;;;;;;;;;5093752;28;20048;-72
2023/10/22 06:37:05;;;;;;;8.77;1.92;;;17.90;99.90;;;;;;5093966;28;20403;-72
2023/10/22 06:39:31;;;;;;;10.27;2.50;;;16.80;99.90;;;;;;5093525;28;20040;-72
2023/10/22 06:41:56;;;;;;;3.55;2.17;;;18.10;99.90;;;;;;5093435;28;20040;-72
2023/10/22 06:44:22;;;;;;;7.72;2.03;;;;;;;;;;5093225;28;20036;-72
2023/10/22 06:46:48;;;;;;;8.15;2.63;;;17.10;99.90;;;;;;5093413;28;20518;-72
2023/10/22 06:49:13;;;;;;;8.45;2.05;;;17.60;99.90;;;;;;5093549;28;20036;-72
2023/10/22 06:51:39;;;;;;;8.35;2.50;;;;;;;;;;5093342;28;20070;-72
2023/10/22 06:54:05;;;;;;;8.77;2.10;;;17.40;99.90;;;;;;5093134;28;20047;-72
2023/10/22 06:56:31;;;;;;;8.85;2.63;;;;;;;;;;5093193;28;20043;-72
2023/10/22 06:58:58;;;;;;;6.28;2.13;;;;;;;;;;5076332;28;20542;-72
2023/10/22 07:01:23;;;;;;;6.18;2.10;;;17.00;99.90;;;;;;5093034;28;20040;-72
2023/10/22 07:03:49;;;;;;;16.15;2.83;;;17.50;99.90;;;;;;5092888;28;20042;-72
2023/10/22 07:06:15;;;;;;;11.52;4.15;;;17.30;99.90;;;;;;5093383;28;20043;-73
2023/10/22 07:08:41;;;;;;;5.90;2.28;;;17.20;99.90;;;;;;5093133;28;20036;-72
2023/10/22 07:11:07;;;;;;;9.13;3.08;;;;;;;;;;5093427;28;20040;-72
2023/10/22 07:13:33;;;;;;;14.73;4.47;;;18.10;99.90;;;;;;5093102;28;20427;-72
2023/10/22 07:15:58;;;;;;;9.68;2.97;;;18.20;99.90;;;;;;5092733;28;20036;-72
2023/10/22 07:18:24;;;;;;;9.70;3.10;;;;;;;;;;5092886;28;20036;-72
2023/10/22 07:20:51;;;;;;;6.93;2.97;;;17.60;99.90;;;;;;5092666;28;20036;-72
2023/10/22 07:23:17;;;;;;;10.07;3.25;;;18.20;99.90;;;;;;5074585;28;20404;-72
2023/10/22 07:25:43;;;;;;;6.53;2.80;;;17.20;99.90;;;;;;5092648;28;20044;-72
2023/10/22 07:28:11;;;;;;;7.50;3.95;;;17.40;99.90;;;;;;5092618;28;20503;-72
2023/10/22 07:30:37;;;;;;;7.15;3.05;;;;;;;;;;5092483;28;20044;-72
2023/10/22 07:33:03;;;;;;;11.00;2.97;;;;;;;;;;5092344;28;20051;-73
2023/10/22 07:35:29;;;;;;;11.07;3.35;;;;;;;;;;5092363;28;20515;-72
2023/10/22 07:37:55;;;;;;;5.78;2.72;;;;;;;;;;5092399;28;20040;-72
2023/10/22 07:40:21;;;;;;;8.70;2.55;;;17.30;99.90;;;;;;5092191;28;20055;-73
2023/10/22 07:42:48;;;;;;;9.02;2.53;;;17.90;99.90;;;;;;5092493;28;20446;-72
2023/10/22 07:45:14;;;;;;;8.50;2.10;;;17.20;99.90;;;;;;5092596;28;20044;-72
2023/10/22 07:47:40;;;;;;;7.78;2.17;;;;;;;;;;5075646;28;20040;-72
2023/10/22 07:50:07;;;;;;;9.52;1.98;;;18.50;99.90;;;;;;5075380;28;20043;-72
2023/10/22 07:52:33;;;;;;;6.75;1.80;;;17.10;99.90;;;;;;5075205;28;20044;-72
2023/10/22 07:54:59;;;;;;;6.25;1.77;;;17.60;99.90;;;;;;5092245;28;20044;-72
2023/10/22 07:57:28;;;;;;;8.98;3.45;;;17.10;99.90;;;;;;5092320;28;20130;-73
2023/10/22 07:59:55;;;;;;;8.30;2.08;;;17.50;99.90;;;;;;5091990;28;20131;-73
2023/10/22 08:02:21;;;;;;;7.07;1.75;;;18.10;99.90;;;;;;5091910;28;20040;-72
2023/10/22 08:04:47;;;;;;;8.48;1.70;;;17.80;99.90;;;;;;5091851;28;20126;-73
2023/10/22 08:07:13;;;;;;;5.80;2.00;;;18.20;99.90;;;;;;5091960;28;20044;-73
2023/10/22 08:09:39;;;;;;;5.57;1.77;;;;;;;;;;5091693;28;20047;-73
2023/10/22 08:12:05;;;;;;;10.73;1.90;;;;;;;;;;5091801;28;20050;-73
2023/10/22 08:14:31;;;;;;;8.98;2.60;;;;;;;;;;5091570;28;20054;-73
2023/10/22 08:16:58;;;;;;;8.80;2.30;;;18.00;99.90;;;;;;5091743;28;20036;-72
2023/10/22 08:19:24;;;;;;;3.63;1.70;;;17.60;99.90;;;;;;5091741;28;20036;-72
2023/10/22 08:21:49;;;;;;;9.93;1.92;;;18.30;99.90;;;;;;5092004;28;20032;-72
2023/10/22 08:24:15;;;;;;;6.00;1.80;;;;;;;;;;5091281;28;20496;-72
2023/10/22 08:26:41;;;;;;;7.43;1.65;;;;;;;;;;5091543;28;20369;-72
2023/10/22 08:29:08;;;;;;;4.35;1.58;;;17.70;99.90;;;;;;5074768;28;20058;-72
2023/10/22 08:31:34;;;;;;;5.82;1.60;;;;;;;;;;5074498;28;20097;-72
2023/10/22 08:34:00;;;;;;;4.57;1.55;;;;;;;;;;5090661;28;20044;-72
2023/10/22 08:36:26;;;;;;;7.70;2.10;;;18.50;99.90;;;;;;5091233;28;20396;-73
2023/10/22 08:38:52;;;;;;;7.55;1.70;;;;;;;;;;5074282;28;20495;-73
2023/10/22 08:41:21;;;;;;;5.03;1.20;;;18.70;99.90;;;;;;5091124;28;20047;-73
2023/10/22 08:43:48;;;;;;;7.30;1.38;;;18.50;99.90;;;;;;5091027;28;20032;-73
2023/10/22 08:46:14;;;;;;;5.22;1.35;;;18.00;99.90;;;;;;5091120;28;20036;-73
2023/10/22 08:48:40;;;;;;;4.20;1.20;;;;;;;;;;5091187;28;20044;-73
2023/10/22 08:51:07;;;;;;;6.03;1.38;;;18.10;99.90;;;;;;5090963;28;20032;-73
2023/10/22 08:53:33;;;;;;;7.93;1.10;;;18.50;99.90;;;;;;5073992;28;20047;-73
2023/10/22 08:56:00;;;;;;;2.88;1.13;;;18.50;99.90;;;;;;5090919;28;20036;-73
2023/10/22 08:58:26;;;;;;;8.60;1.38;;;18.20;99.90;;;;;;5091013;28;20044;-73
2023/10/22 09:00:52;;;;;;;3.25;1.30;;;18.70;99.90;;;;;;5090868;28;20040;-73
2023/10/22 09:03:18;;;;;;;2.90;0.90;;;18.40;99.90;;;;;;5090711;28;20044;-71
2023/10/22 09:05:45;;;;;;;5.35;1.10;;;18.70;99.90;;;;;;5091065;28;20040;-72
2023/10/22 09:08:11;;;;;;;2.40;0.70;;;18.70;99.90;;;;;;5090814;28;20035;-72
2023/10/22 09:10:37;;;;;;;1.85;0.70;;;18.90;99.90;;;;;;5090565;28;20388;-72
2023/10/22 09:13:16;;;;;;;3.72;0.90;;;18.80;99.90;;;;;;5090530;28;20123;-72
2023/10/22 09:15:50;;;;;;;3.20;0.85;;;18.70;99.90;;;;;;5090612;28;20036;-72
2023/10/22 09:18:17;;;;;;;7.35;1.83;;;19.00;99.90;;;;;;5073979;28;20081;-72
2023/10/22 09:20:44;;;;;;;1.73;0.82;;;18.70;99.90;;;;;;5090517;28;20047;-72
2023/10/22 09:23:20;;;;;;;3.65;0.80;;;19.00;99.90;;;;;;5090393;28;20048;-72
2023/10/22 09:25:49;;;;;;;1.75;0.70;;;18.90;99.90;;;;;;5090576;28;20047;-72
2023/10/22 09:28:24;;;;;;;1.80;0.80;;;18.90;99.90;;;;;;5090549;28;20047;-72
2023/10/22 09:31:00;;;;;;;1.98;0.90;;;19.00;99.90;;;;;;5090321;28;20130;-72
2023/10/22 09:33:32;;;;;;;2.65;0.60;;;18.70;99.90;;;;;;5073464;28;20556;-72
2023/10/22 09:36:00;;;;;;;3.83;0.88;;;18.80;99.90;;;;;;5090341;28;20039;-72
2023/10/22 09:38:48;;;;;;;3.55;1.00;;;18.90;99.90;;;;;;5090548;28;20250;-72
2023/10/22 09:41:23;;;;;;;2.00;1.10;;;19.00;99.90;;;;;;5073437;28;20036;-72
2023/10/22 09:43:54;;;;;;;1.52;0.80;;;19.00;99.90;;;;;;5090363;28;20039;-72
2023/10/22 09:46:20;;;;;;;2.40;0.90;;;19.10;99.90;;;;;;5074260;28;20036;-73
2023/10/22 09:48:50;;;;;;;2.95;1.05;;;19.00;99.90;;;;;;5094690;28;20044;-73
2023/10/22 09:51:17;;;;;;;0.82;0.70;;;18.80;99.90;;;;;;5094476;28;20043;-73
2023/10/22 09:53:50;;;;;;;5.97;1.20;;;18.80;99.90;;;;;;5094258;28;20109;-73
2023/10/22 09:56:19;;;;;;;2.55;1.00;;;18.70;99.90;;;;;;5094732;28;20406;-73
2023/10/22 09:58:48;;;;;;;5.95;1.00;;;18.70;99.90;;;;;;5094673;28;20495;-73
2023/10/22 10:01:14;;;;;;;4.03;1.10;;;18.70;99.90;;;;;;5077620;28;20040;-73
2023/10/22 10:03:41;;;;;;;6.10;1.70;;;18.60;99.90;;;;;;5094141;28;20027;-73
2023/10/22 10:06:08;;;;;;;3.38;0.77;;;18.60;99.90;;;;;;5094175;28;20122;-73
2023/10/22 10:08:40;;;;;;;3.33;0.80;;;18.60;99.90;;;;;;5094172;28;20046;-73
2023/10/22 10:11:09;;;;;;;4.13;1.00;;;19.00;99.90;;;;;;5093955;28;20483;-72
2023/10/22 10:13:35;;;;;;;1.65;0.70;;;19.10;99.90;;;;;;5094062;28;20087;-72
2023/10/22 10:16:05;;;;;;;2.92;0.88;;;18.80;99.90;;;;;;5094066;28;20075;-72
2023/10/22 10:19:08;;;;;;;1.95;0.70;;;19.20;99.90;;;;;;5077241;28;20036;-73
2023/10/22 10:21:33;;;;;;;3.13;1.00;;;19.10;99.90;;;;;;5094250;28;20048;-73
2023/10/22 10:24:14;;;;;;;2.03;0.93;;;19.30;99.90;;;;;;5093633;28;20143;-73
2023/10/22 10:26:40;;;;;;;1.05;0.60;;;19.30;99.90;;;;;;5094118;28;20036;-73
2023/10/22 10:29:06;;;;;;;3.75;0.95;;;19.20;99.90;;;;;;5093675;28;20072;-73
2023/10/22 10:31:32;;;;;;;3.50;0.98;;;19.30;99.90;;;;;;5093773;28;20039;-73
2023/10/22 10:34:02;;;;;;;2.50;0.98;;;19.00;99.90;;;;;;5093584;28;20039;-73
2023/10/22 10:36:28;;;;;;;4.60;1.00;;;;;;;;;;5093692;28;20506;-72
2023/10/22 10:39:25;;;;;;;2.03;0.77;;;19.30;99.90;;;;;;5093940;28;20040;-73
2023/10/22 10:41:53;;;;;;;3.95;0.90;;;19.20;99.90;;;;;;5093424;28;20499;-73
2023/10/22 10:44:18;;;;;;;2.25;0.95;;;19.20;99.90;;;;;;5076475;28;20077;-73
2023/10/22 10:46:44;;;;;;;2.15;0.82;;;;;;;;;;5093732;28;20469;-73
2023/10/22 10:49:10;;;;;;;3.47;0.82;;;19.10;99.90;;;;;;5093563;28;20089;-73
2023/10/22 10:51:36;;;;;;;1.48;0.63;;;;;;;;;;5076517;28;20483;-73
2023/10/22 10:54:08;;;;;;;0.90;0.70;;;;;;;;;;5076140;28;20044;-73
2023/10/22 10:56:47;;;;;;;3.20;0.77;;;19.30;99.90;;;;;;5093291;28;20040;-73
2023/10/22 10:59:26;;;;;;;3.15;1.05;;;19.50;99.90;;;;;;5093056;28;20040;-73
2023/10/22 11:02:01;;;;;;;1.30;0.55;;;19.80;99.90;;;;;;5093173;28;20094;-73
2023/10/22 11:04:29;;;;;;;1.35;0.70;;;19.50;99.90;;;;;;5092846;28;20040;-73
2023/10/22 11:06:56;;;;;;;2.00;0.80;;;;;;;;;;5093115;28;20043;-73
2023/10/22 11:09:21;;;;;;;1.95;0.55;;;19.70;99.90;;;;;;5093054;28;20522;-73
2023/10/22 11:12:03;;;;;;;1.27;0.45;;;19.40;99.90;;;;;;5076066;28;20040;-73
2023/10/22 11:14:36;;;;;;;0.80;0.60;;;19.50;99.90;;;;;;5092631;28;20123;-73
2023/10/22 11:17:03;;;;;;;2.78;0.50;;;;;;;;;;5092863;28;20507;-73
2023/10/22 11:19:30;;;;;;;2.40;0.60;;;19.50;99.90;;;;;;5092864;28;20081;-73
2023/10/22 11:21:57;;;;;;;1.45;0.70;;;19.60;99.90;;;;;;5076283;28;20032;-72
2023/10/22 11:24:29;;;;;;;1.13;0.40;;;19.70;99.90;;;;;;5092576;28;20093;-73
2023/10/22 11:26:57;;;;;;;0.68;0.43;;;19.50;99.90;;;;;;5092994;28;20439;-73
2023/10/22 11:29:23;;;;;;;3.72;0.50;;;;;;;;;;5075749;28;20040;-73
2023/10/22 11:31:59;;;;;;;1.88;0.50;;;19.60;99.90;;;;;;5092407;28;20113;-73
2023/10/22 11:34:25;;;;;;;3.80;0.50;;;20.00;99.90;;;;;;5092302;28;20040;-73
2023/10/22 11:36:58;;;;;;;1.33;0.60;;;19.70;99.90;;;;;;5092476;28;20036;-73
2023/10/22 11:39:32;;;;;;;2.83;0.50;;;19.90;99.90;;;;;;5092494;28;20040;-73
2023/10/22 11:41:58;;;;;;;0.90;0.40;;;19.60;99.90;;;;;;5075347;28;20522;-73
2023/10/22 11:44:34;;;;;;;2.50;0.75;;;19.60;99.90;;;;;;5092241;28;20506;-73
2023/10/22 11:47:24;;;;;;;1.00;0.30;;;19.90;99.90;;;;;;5092450;28;20044;-73
2023/10/22 11:49:50;;;;;;;0.95;0.40;;;19.90;99.90;;;;;;5092300;28;20032;-73
2023/10/22 11:52:34;;;;;;;2.88;0.80;;;20.00;99.90;;;;;;5092078;28;20131;-73
2023/10/22 11:55:00;;;;;;;0.35;0.35;;;20.00;99.90;;;;;;5092207;28;20044;-73
2023/10/22 11:57:26;;;;;;;1.67;0.80;;;19.90;99.90;;;;;;5092176;28;20138;-73
2023/10/22 11:59:52;;;;;;;2.10;0.50;;;20.00;99.90;;;;;;5093486;28;20534;-73
2023/10/22 12:02:17;;;;;;;1.35;0.57;;;19.90;99.90;;;;;;5092094;28;20035;-73
2023/10/22 12:04:43;;;;;;;1.75;0.63;;;;;;;;;;5092161;28;20036;-73
2023/10/22 12:07:09;;;;;;;1.48;0.57;;;;;;;;;;5091835;28;20411;-73
2023/10/22 12:09:35;;;;;;;2.63;0.50;;;19.90;99.90;;;;;;5091096;28;20102;-73
2023/10/22 12:12:00;;;;;;;1.45;0.40;;;19.90;99.90;;;;;;5092041;28;20411;-73
2023/10/22 12:14:26;;;;;;;1.35;0.32;;;19.90;99.90;;;;;;5091595;28;20046;-73
2023/10/22 12:16:52;;;;;;;0.85;0.50;;;;;;;;;;5091888;28;20032;-73
2023/10/22 12:19:18;;;;;;;6.28;0.80;;;;;;;;;;5091667;28;20517;-73
2023/10/22 12:21:44;;;;;;;0.80;0.32;;;;;;;;;;5091509;28;20040;-73
2023/10/22 12:24:09;;;;;;;1.38;0.30;;;20.20;99.90;;;;;;5091679;28;20040;-72
2023/10/22 12:26:35;;;;;;;2.22;0.60;;;20.00;99.90;;;;;;5074662;28;20564;-72
2023/10/22 12:29:01;;;;;;;3.80;0.75;;;;;;;;;;5091445;28;20048;-73
2023/10/22 12:31:26;;;;;;;2.40;0.60;;;20.00;99.90;;;;;;5091598;28;20043;-73
2023/10/22 12:33:52;;;;;;;2.28;0.77;;;;;;;;;;5091136;28;20031;-73
2023/10/22 12:36:18;;;;;;;2.10;1.10;;;;;;;;;;5091512;28;20134;-73
2023/10/22 12:38:44;;;;;;;4.88;1.05;;;20.00;99.90;;;;;;5091333;28;20110;-73
2023/10/22 12:41:10;;;;;;;2.95;0.50;;;20.00;99.90;;;;;;5091263;28;20036;-73
2023/10/22 12:43:36;;;;;;;0.82;0.50;;;19.80;99.90;;;;;;5091371;28;20047;-74
2023/10/22 12:46:04;;;;;;;1.30;0.50;;;20.00;99.90;;;;;;5091413;28;20044;-74
2023/10/22 12:48:29;;;;;;;1.55;0.68;;;19.80;99.90;;;;;;5091438;28;20048;-75
2023/10/22 12:50:55;;;;;;;4.78;1.05;;;;;;;;;;5074340;28;20495;-75
2023/10/22 12:53:21;;;;;;;2.03;0.45;;;;;;;;;;5090861;28;20040;-75
2023/10/22 12:55:54;;;;;;;2.90;0.80;;;19.80;99.90;;;;;;5090985;28;20071;-73
2023/10/22 12:58:20;;;;;;;2.72;0.52;;;;;;;;;;5091040;28;20046;-73
2023/10/22 13:00:46;;;;;;;1.30;0.50;;;;;;;;;;5092062;28;20039;-73
2023/10/22 13:03:12;;;;;;;2.60;0.57;;;19.60;99.90;;;;;;5073951;28;20046;-73
2023/10/22 13:05:38;;;;;;;3.22;0.88;;;;;;;;;;5091006;28;20130;-73
2023/10/22 13:08:04;;;;;;;1.92;0.80;;;;;;;;;;5090863;28;20094;-73
2023/10/22 13:10:33;;;;;;;2.38;0.70;;;19.80;99.90;;;;;;5090857;28;20040;-73
2023/10/22 13:13:03;;;;;;;5.00;1.25;;;19.80;99.90;;;;;;5091175;28;20455;-74
2023/10/22 13:15:29;;;;;;;5.28;1.42;;;;;;;;;;5091971;28;20040;-73
2023/10/22 13:17:55;;;;;;;5.88;1.40;;;19.80;99.90;;;;;;5090580;28;20048;-74
2023/10/22 13:20:21;;;;;;;2.50;1.25;;;;;;;;;;5090476;28;20043;-74